createdAt,value
2019-01-21T00:00:20.519Z,0
2019-01-21T00:01:29.695Z,0
2019-01-21T00:02:39.369Z,0
2019-01-21T00:03:49.303Z,0
2019-01-21T00:04:58.962Z,0
2019-01-21T00:06:08.137Z,0
2019-01-21T00:07:17.815Z,0
2019-01-21T00:08:27.736Z,0
2019-01-21T00:09:37.404Z,0
2019-01-21T00:10:47.323Z,0
2019-01-21T00:11:56.492Z,0
2019-01-21T00:13:05.913Z,0
2019-01-21T00:14:15.087Z,0
2019-01-21T00:15:24.996Z,0
2019-01-21T00:16:34.659Z,0
2019-01-21T00:17:44.578Z,0
2019-01-21T00:18:54.002Z,0
2019-01-21T00:20:03.429Z,0
2019-01-21T00:21:13.103Z,0
2019-01-21T00:22:22.526Z,0
2019-01-21T00:23:32.199Z,0
2019-01-21T00:24:42.116Z,0
2019-01-21T00:25:51.785Z,0
2019-01-21T00:27:01.452Z,0
2019-01-21T00:28:11.385Z,0
2019-01-21T00:29:21.309Z,0
2019-01-21T00:30:30.977Z,0
2019-01-21T00:31:40.404Z,0
2019-01-21T00:32:49.821Z,0
2019-01-21T00:33:59.747Z,0
2019-01-21T00:35:09.418Z,0
2019-01-21T00:36:19.083Z,0
2019-01-21T00:37:28.521Z,0
2019-01-21T00:38:37.941Z,0
2019-01-21T00:39:47.626Z,0
2019-01-21T00:40:57.300Z,0
2019-01-21T00:42:07.214Z,0
2019-01-21T00:43:17.135Z,0
2019-01-21T00:44:26.802Z,0
2019-01-21T00:45:35.969Z,0
2019-01-21T00:46:45.634Z,0
2019-01-21T00:47:55.308Z,0
2019-01-21T00:49:04.724Z,0
2019-01-21T00:50:13.895Z,0
2019-01-21T00:51:24.138Z,0
2019-01-21T00:52:33.810Z,0
2019-01-21T00:53:43.477Z,0
2019-01-21T00:54:53.572Z,0
2019-01-21T00:56:02.997Z,0
2019-01-21T00:57:12.661Z,0
2019-01-21T00:58:22.079Z,0
2019-01-21T00:59:31.759Z,0
2019-01-21T01:00:41.435Z,0
2019-01-21T01:01:50.871Z,0
2019-01-21T01:03:00.543Z,0
2019-01-21T01:04:10.467Z,0
2019-01-21T01:05:19.890Z,0
2019-01-21T01:06:29.553Z,0
2019-01-21T01:07:39.476Z,0
2019-01-21T01:08:49.392Z,0
2019-01-21T01:09:59.303Z,0
2019-01-21T01:11:08.976Z,0
2019-01-21T01:12:18.452Z,0
2019-01-21T01:13:27.874Z,0
2019-01-21T01:14:37.290Z,0
2019-01-21T01:15:47.205Z,0
2019-01-21T01:16:57.122Z,0
2019-01-21T01:18:06.292Z,0
2019-01-21T01:19:16.208Z,0
2019-01-21T01:20:26.171Z,0
2019-01-21T01:21:36.084Z,0
2019-01-21T01:22:45.499Z,0
2019-01-21T01:23:55.172Z,0
2019-01-21T01:25:04.841Z,0
2019-01-21T01:26:14.551Z,0
2019-01-21T01:27:24.218Z,0
2019-01-21T01:28:33.638Z,0
2019-01-21T01:29:43.049Z,0
2019-01-21T01:30:52.723Z,0
2019-01-21T01:32:02.141Z,0
2019-01-21T01:33:12.053Z,0
2019-01-21T01:34:21.718Z,0
2019-01-21T01:35:31.151Z,0
2019-01-21T01:36:40.334Z,0
2019-01-21T01:37:50.252Z,0
2019-01-21T01:38:59.671Z,0
2019-01-21T01:40:09.094Z,0
2019-01-21T01:41:18.769Z,0
2019-01-21T01:42:28.224Z,0
2019-01-21T01:43:38.167Z,0
2019-01-21T01:44:47.403Z,0
2019-01-21T01:45:57.124Z,0
2019-01-21T01:47:07.072Z,0
2019-01-21T01:48:16.763Z,0
2019-01-21T01:49:26.717Z,0
2019-01-21T01:50:36.405Z,0
2019-01-21T01:51:45.589Z,0
2019-01-21T01:52:55.287Z,0
2019-01-21T01:54:05.000Z,0
2019-01-21T01:55:13.934Z,0
2019-01-21T01:56:23.627Z,0
2019-01-21T01:57:33.323Z,0
2019-01-21T01:58:43.273Z,0
2019-01-21T01:59:52.955Z,0
2019-01-21T02:01:02.434Z,0
2019-01-21T02:02:12.126Z,0
2019-01-21T02:03:21.321Z,0
2019-01-21T02:04:31.009Z,0
2019-01-21T02:05:40.954Z,0
2019-01-21T02:06:50.973Z,0
2019-01-21T02:08:01.488Z,0
2019-01-21T02:09:12.210Z,0
2019-01-21T02:10:22.279Z,0
2019-01-21T02:11:32.538Z,0
2019-01-21T02:12:42.563Z,0
2019-01-21T02:13:52.504Z,0
2019-01-21T02:15:02.014Z,0
2019-01-21T02:16:11.200Z,0
2019-01-21T02:17:21.140Z,0
2019-01-21T02:18:30.343Z,0
2019-01-21T02:19:40.035Z,0
2019-01-21T02:20:49.723Z,0
2019-01-21T02:21:59.408Z,0
2019-01-21T02:23:09.116Z,0
2019-01-21T02:24:18.807Z,0
2019-01-21T02:25:28.516Z,0
2019-01-21T02:26:38.207Z,0
2019-01-21T02:27:47.899Z,0
2019-01-21T02:28:57.396Z,0
2019-01-21T02:30:06.890Z,0
2019-01-21T02:31:16.630Z,0
2019-01-21T02:32:26.323Z,0
2019-01-21T02:33:35.269Z,0
2019-01-21T02:34:45.229Z,0
2019-01-21T02:35:54.922Z,0
2019-01-21T02:37:04.866Z,0
2019-01-21T02:38:14.554Z,0
2019-01-21T02:39:24.258Z,0
2019-01-21T02:40:34.217Z,0
2019-01-21T02:41:43.669Z,0
2019-01-21T02:42:53.114Z,0
2019-01-21T02:44:02.806Z,0
2019-01-21T02:45:12.538Z,0
2019-01-21T02:46:21.983Z,0
2019-01-21T02:47:31.676Z,0
2019-01-21T02:48:41.656Z,0
2019-01-21T02:49:50.861Z,0
2019-01-21T02:51:00.611Z,0
2019-01-21T02:52:10.866Z,0
2019-01-21T02:53:21.623Z,0
2019-01-21T02:54:32.372Z,0
2019-01-21T02:55:42.622Z,0
2019-01-21T02:56:52.054Z,0
2019-01-21T02:58:01.752Z,0
2019-01-21T02:59:11.696Z,0
2019-01-21T03:00:21.139Z,0
2019-01-21T03:01:30.827Z,0
2019-01-21T03:02:40.287Z,0
2019-01-21T03:03:50.223Z,0
2019-01-21T03:05:00.320Z,0
2019-01-21T03:06:09.795Z,0
2019-01-21T03:07:19.503Z,0
2019-01-21T03:08:29.197Z,0
2019-01-21T03:09:39.162Z,0
2019-01-21T03:10:49.102Z,0
2019-01-21T03:11:59.049Z,0
2019-01-21T03:13:08.253Z,0
2019-01-21T03:14:17.963Z,0
2019-01-21T03:15:27.158Z,0
2019-01-21T03:16:36.870Z,0
2019-01-21T03:17:46.313Z,0
2019-01-21T03:18:55.749Z,0
2019-01-21T03:20:05.212Z,0
2019-01-21T03:21:15.152Z,0
2019-01-21T03:22:24.617Z,0
2019-01-21T03:23:33.816Z,0
2019-01-21T03:24:43.304Z,0
2019-01-21T03:25:53.025Z,0
2019-01-21T03:27:02.494Z,0
2019-01-21T03:28:12.198Z,0
2019-01-21T03:29:22.187Z,0
2019-01-21T03:30:31.645Z,0
2019-01-21T03:31:41.725Z,0
2019-01-21T03:32:51.746Z,0
2019-01-21T03:34:01.751Z,0
2019-01-21T03:35:12.058Z,0
2019-01-21T03:36:22.865Z,0
2019-01-21T03:37:33.623Z,0
2019-01-21T03:38:43.985Z,0
2019-01-21T03:39:54.186Z,0
2019-01-21T03:41:03.816Z,0
2019-01-21T03:42:13.514Z,0
2019-01-21T03:43:23.201Z,0
2019-01-21T03:44:33.153Z,0
2019-01-21T03:45:42.853Z,0
2019-01-21T03:46:52.871Z,0
2019-01-21T03:48:02.576Z,0
2019-01-21T03:49:12.529Z,0
2019-01-21T03:50:22.256Z,0
2019-01-21T03:51:31.971Z,0
2019-01-21T03:52:41.419Z,0
2019-01-21T03:53:50.628Z,0
2019-01-21T03:55:00.327Z,0
2019-01-21T03:56:09.534Z,0
2019-01-21T03:57:19.229Z,0
2019-01-21T03:58:29.187Z,0
2019-01-21T03:59:39.141Z,0
2019-01-21T04:00:48.835Z,0
2019-01-21T04:01:58.528Z,0
2019-01-21T04:03:08.218Z,0
2019-01-21T04:04:17.937Z,0
2019-01-21T04:05:27.640Z,0
2019-01-21T04:06:37.337Z,0
2019-01-21T04:07:47.030Z,0
2019-01-21T04:08:56.476Z,0
2019-01-21T04:10:06.454Z,0
2019-01-21T04:11:15.910Z,0
2019-01-21T04:12:25.869Z,0
2019-01-21T04:13:35.570Z,0
2019-01-21T04:14:45.261Z,0
2019-01-21T04:15:55.207Z,0
2019-01-21T04:17:05.153Z,0
2019-01-21T04:18:15.098Z,0
2019-01-21T04:19:32.645Z,0
2019-01-21T04:20:42.901Z,0
2019-01-21T04:21:53.009Z,0
2019-01-21T04:23:02.721Z,0
2019-01-21T04:24:12.671Z,0
2019-01-21T04:25:22.621Z,0
2019-01-21T04:26:32.341Z,0
2019-01-21T04:27:42.049Z,0
2019-01-21T04:28:51.745Z,0
2019-01-21T04:30:01.713Z,0
2019-01-21T04:31:11.662Z,0
2019-01-21T04:32:21.356Z,0
2019-01-21T04:33:31.060Z,0
2019-01-21T04:34:41.046Z,0
2019-01-21T04:35:50.809Z,0
2019-01-21T04:37:00.506Z,0
2019-01-21T04:38:10.208Z,0
2019-01-21T04:39:20.161Z,0
2019-01-21T04:40:29.876Z,0
2019-01-21T04:41:39.577Z,0
2019-01-21T04:42:49.550Z,0
2019-01-21T04:43:59.250Z,0
2019-01-21T04:45:08.982Z,0
2019-01-21T04:46:19.192Z,0
2019-01-21T04:47:29.264Z,0
2019-01-21T04:48:40.168Z,0
2019-01-21T04:49:49.624Z,0
2019-01-21T04:50:59.572Z,0
2019-01-21T04:52:09.528Z,0
2019-01-21T04:53:19.471Z,0
2019-01-21T04:54:28.929Z,0
2019-01-21T04:55:38.379Z,0
2019-01-21T04:56:48.352Z,0
2019-01-21T04:57:58.144Z,0
2019-01-21T04:59:09.057Z,0
2019-01-21T05:00:19.747Z,0
2019-01-21T05:01:30.033Z,0
2019-01-21T05:02:40.403Z,0
2019-01-21T05:03:52.422Z,0
2019-01-21T05:05:02.131Z,0
2019-01-21T05:06:11.639Z,0
2019-01-21T05:07:21.575Z,0
2019-01-21T05:08:31.573Z,0
2019-01-21T05:09:41.276Z,0
2019-01-21T05:10:51.027Z,0
2019-01-21T05:12:00.726Z,0
2019-01-21T05:13:10.686Z,0
2019-01-21T05:14:20.144Z,0
2019-01-21T05:15:29.942Z,0
2019-01-21T05:16:39.880Z,0
2019-01-21T05:17:49.585Z,0
2019-01-21T05:18:58.792Z,0
2019-01-21T05:20:09.389Z,0
2019-01-21T05:21:19.212Z,0
2019-01-21T05:22:28.938Z,0
2019-01-21T05:23:38.395Z,0
2019-01-21T05:24:48.090Z,0
2019-01-21T05:25:57.797Z,0
2019-01-21T05:27:07.289Z,0
2019-01-21T05:28:16.997Z,0
2019-01-21T05:29:26.707Z,0
2019-01-21T05:30:36.659Z,0
2019-01-21T05:31:46.112Z,0
2019-01-21T05:32:56.057Z,0
2019-01-21T05:34:06.006Z,0
2019-01-21T05:35:15.710Z,0
2019-01-21T05:36:25.811Z,0
2019-01-21T05:37:35.530Z,0
2019-01-21T05:38:45.225Z,0
2019-01-21T05:39:55.147Z,0
2019-01-21T05:41:04.830Z,0
2019-01-21T05:42:14.253Z,0
2019-01-21T05:43:24.173Z,0
2019-01-21T05:44:34.091Z,0
2019-01-21T05:45:43.764Z,0
2019-01-21T05:46:53.438Z,0
2019-01-21T05:48:03.118Z,0
2019-01-21T05:49:13.054Z,0
2019-01-21T05:50:22.730Z,0
2019-01-21T05:51:32.401Z,0
2019-01-21T05:52:42.075Z,0
2019-01-21T05:53:52.005Z,0
2019-01-21T05:55:01.696Z,0
2019-01-21T05:56:11.417Z,0
2019-01-21T05:57:21.089Z,0
2019-01-21T05:58:30.754Z,0
2019-01-21T05:59:40.430Z,0
2019-01-21T06:00:49.595Z,0
2019-01-21T06:01:59.556Z,0
2019-01-21T06:03:09.224Z,0
2019-01-21T06:04:19.144Z,0
2019-01-21T06:05:28.563Z,0
2019-01-21T06:06:38.228Z,0
2019-01-21T06:07:47.658Z,0
2019-01-21T06:08:57.083Z,0
2019-01-21T06:10:07.002Z,0
2019-01-21T06:11:16.443Z,0
2019-01-21T06:12:26.361Z,0
2019-01-21T06:13:35.781Z,0
2019-01-21T06:14:45.440Z,0
2019-01-21T06:15:54.871Z,0
2019-01-21T06:17:04.297Z,0
2019-01-21T06:18:13.964Z,0
2019-01-21T06:19:23.891Z,0
2019-01-21T06:20:33.567Z,0
2019-01-21T06:21:43.509Z,0
2019-01-21T06:22:53.202Z,0
2019-01-21T06:24:02.625Z,0
2019-01-21T06:25:12.564Z,0
2019-01-21T06:26:21.736Z,0
2019-01-21T06:27:31.657Z,0
2019-01-21T06:28:41.334Z,0
2019-01-21T06:29:50.994Z,0
2019-01-21T06:31:00.665Z,0
2019-01-21T06:32:10.593Z,0
2019-01-21T06:33:20.256Z,0
2019-01-21T06:34:30.241Z,0
2019-01-21T06:35:39.957Z,0
2019-01-21T06:36:49.128Z,0
2019-01-21T06:37:58.546Z,0
2019-01-21T06:39:08.216Z,0
2019-01-21T06:40:17.892Z,0
2019-01-21T06:41:27.571Z,0
2019-01-21T06:42:37.485Z,0
2019-01-21T06:43:47.399Z,0
2019-01-21T06:44:57.322Z,0
2019-01-21T06:46:06.742Z,0
2019-01-21T06:47:16.168Z,0
2019-01-21T06:48:26.083Z,4
2019-01-21T06:49:35.742Z,0
2019-01-21T06:50:45.415Z,0
2019-01-21T06:51:54.580Z,4
2019-01-21T06:53:04.247Z,0
2019-01-21T06:54:13.914Z,4
2019-01-21T06:55:23.832Z,4
2019-01-21T06:56:34.438Z,4
2019-01-21T06:57:43.856Z,8
2019-01-21T06:58:53.272Z,4
2019-01-21T07:00:03.182Z,8
2019-01-21T07:01:12.594Z,12
2019-01-21T07:02:22.505Z,16
2019-01-21T07:03:31.927Z,16
2019-01-21T07:04:41.858Z,20
2019-01-21T07:05:51.778Z,20
2019-01-21T07:07:01.202Z,28
2019-01-21T07:08:10.865Z,28
2019-01-21T07:09:20.776Z,36
2019-01-21T07:10:30.199Z,40
2019-01-21T07:11:39.618Z,48
2019-01-21T07:12:50.888Z,56
2019-01-21T07:14:00.805Z,64
2019-01-21T07:15:10.465Z,72
2019-01-21T07:16:20.375Z,84
2019-01-21T07:17:29.794Z,96
2019-01-21T07:18:39.212Z,108
2019-01-21T07:19:51.086Z,124
2019-01-21T07:21:00.505Z,140
2019-01-21T07:22:10.419Z,156
2019-01-21T07:23:20.084Z,176
2019-01-21T07:24:30.005Z,192
2019-01-21T07:25:39.424Z,212
2019-01-21T07:26:48.589Z,232
2019-01-21T07:27:58.004Z,256
2019-01-21T07:29:07.913Z,280
2019-01-21T07:30:17.835Z,300
2019-01-21T07:31:27.254Z,324
2019-01-21T07:32:36.665Z,348
2019-01-21T07:33:46.075Z,372
2019-01-21T07:34:55.244Z,392
2019-01-21T07:36:04.919Z,420
2019-01-21T07:37:14.341Z,448
2019-01-21T07:38:24.005Z,472
2019-01-21T07:39:36.320Z,504
2019-01-21T07:40:45.741Z,536
2019-01-21T07:41:54.905Z,564
2019-01-21T07:43:05.206Z,592
2019-01-21T07:44:15.130Z,620
2019-01-21T07:45:24.299Z,648
2019-01-21T07:46:33.965Z,680
2019-01-21T07:47:43.133Z,716
2019-01-21T07:48:52.549Z,744
2019-01-21T07:50:01.468Z,772
2019-01-21T07:51:11.137Z,796
2019-01-21T07:52:21.053Z,820
2019-01-21T07:53:30.720Z,836
2019-01-21T07:54:40.387Z,848
2019-01-21T07:55:50.307Z,860
2019-01-21T07:56:59.721Z,868
2019-01-21T07:58:09.636Z,876
2019-01-21T07:59:19.303Z,896
2019-01-21T08:00:28.725Z,920
2019-01-21T08:01:38.642Z,932
2019-01-21T08:02:48.061Z,940
2019-01-21T08:03:57.986Z,948
2019-01-21T08:05:07.916Z,960
2019-01-21T08:06:17.333Z,980
2019-01-21T08:07:27.006Z,992
2019-01-21T08:08:36.179Z,1016
2019-01-21T08:09:45.608Z,1044
2019-01-21T08:10:55.530Z,1088
2019-01-21T08:12:05.450Z,1136
2019-01-21T08:13:15.376Z,1172
2019-01-21T08:14:25.048Z,1212
2019-01-21T08:15:34.712Z,1252
2019-01-21T08:16:44.632Z,1324
2019-01-21T08:17:55.038Z,1420
2019-01-21T08:19:04.714Z,1504
2019-01-21T08:20:14.630Z,1560
2019-01-21T08:21:24.536Z,1608
2019-01-21T08:22:34.454Z,1648
2019-01-21T08:23:44.128Z,1696
2019-01-21T08:24:54.060Z,1720
2019-01-21T08:26:03.729Z,1720
2019-01-21T08:27:13.400Z,1704
2019-01-21T08:28:24.415Z,1684
2019-01-21T08:29:34.080Z,1676
2019-01-21T08:30:43.993Z,1696
2019-01-21T08:31:53.662Z,1704
2019-01-21T08:33:03.326Z,1668
2019-01-21T08:34:13.001Z,1624
2019-01-21T08:35:22.668Z,1632
2019-01-21T08:36:32.586Z,1692
2019-01-21T08:37:42.254Z,1788
2019-01-21T08:38:51.961Z,1856
2019-01-21T08:40:01.634Z,1908
2019-01-21T08:41:11.304Z,1976
2019-01-21T08:42:20.969Z,2096
2019-01-21T08:43:30.646Z,2268
2019-01-21T08:44:39.828Z,2460
2019-01-21T08:45:49.741Z,2600
2019-01-21T08:46:59.404Z,2700
2019-01-21T08:48:09.326Z,2780
2019-01-21T08:49:18.747Z,2856
2019-01-21T08:50:28.162Z,2900
2019-01-21T08:51:37.891Z,2928
2019-01-21T08:52:47.329Z,2980
2019-01-21T08:53:57.239Z,3024
2019-01-21T08:55:07.167Z,3040
2019-01-21T08:56:17.085Z,3040
2019-01-21T08:57:26.761Z,3008
2019-01-21T08:58:36.428Z,2940
2019-01-21T08:59:46.349Z,2864
2019-01-21T09:00:56.272Z,2800
2019-01-21T09:02:05.723Z,2792
2019-01-21T09:03:19.377Z,2796
2019-01-21T09:04:29.314Z,2832
2019-01-21T09:05:38.731Z,2860
2019-01-21T09:06:48.399Z,2868
2019-01-21T09:07:58.064Z,2876
2019-01-21T09:09:07.995Z,2904
2019-01-21T09:10:17.671Z,2988
2019-01-21T09:11:27.595Z,3084
2019-01-21T09:12:37.263Z,3164
2019-01-21T09:13:47.830Z,3304
2019-01-21T09:14:57.530Z,3440
2019-01-21T09:16:07.252Z,3612
2019-01-21T09:17:16.925Z,3684
2019-01-21T09:18:26.596Z,3692
2019-01-21T09:19:41.759Z,3608
2019-01-21T09:20:51.427Z,3464
2019-01-21T09:22:00.599Z,3356
2019-01-21T09:23:10.022Z,3220
2019-01-21T09:24:20.601Z,3056
2019-01-21T09:25:30.513Z,2864
2019-01-21T09:26:39.932Z,2724
2019-01-21T09:27:49.854Z,2508
2019-01-21T09:28:59.278Z,2368
2019-01-21T09:30:09.192Z,2312
2019-01-21T09:31:18.863Z,2380
2019-01-21T09:32:28.284Z,2536
2019-01-21T09:33:37.990Z,2564
2019-01-21T09:34:47.658Z,2548
2019-01-21T09:35:57.577Z,2548
2019-01-21T09:37:07.500Z,2532
2019-01-21T09:38:16.927Z,2512
2019-01-21T09:39:26.596Z,2552
2019-01-21T09:40:36.037Z,2492
2019-01-21T09:41:45.970Z,2472
2019-01-21T09:42:55.641Z,2512
2019-01-21T09:44:05.559Z,2588
2019-01-21T09:45:15.478Z,2720
2019-01-21T09:46:24.898Z,2892
2019-01-21T09:47:34.822Z,2992
2019-01-21T09:48:44.488Z,3088
2019-01-21T09:49:54.410Z,3264
2019-01-21T09:51:04.085Z,3484
2019-01-21T09:52:14.003Z,3700
2019-01-21T09:53:23.673Z,3860
2019-01-21T09:54:32.849Z,3988
2019-01-21T09:55:42.523Z,4172
2019-01-21T09:56:52.056Z,4332
2019-01-21T09:58:02.002Z,4396
2019-01-21T09:59:11.433Z,4392
2019-01-21T10:00:21.107Z,4248
2019-01-21T10:01:31.029Z,4080
2019-01-21T10:02:40.219Z,3912
2019-01-21T10:03:49.661Z,3872
2019-01-21T10:04:59.330Z,3796
2019-01-21T10:06:09.000Z,3656
2019-01-21T10:07:18.688Z,3564
2019-01-21T10:08:28.113Z,3432
2019-01-21T10:09:37.539Z,3444
2019-01-21T10:10:47.457Z,3444
2019-01-21T10:11:57.373Z,3420
2019-01-21T10:13:07.298Z,3344
2019-01-21T10:14:17.216Z,3232
2019-01-21T10:15:26.635Z,3312
2019-01-21T10:16:37.190Z,3252
2019-01-21T10:17:46.614Z,3148
2019-01-21T10:18:56.039Z,3208
2019-01-21T10:20:05.214Z,3264
2019-01-21T10:21:14.883Z,3380
2019-01-21T10:22:24.801Z,3284
2019-01-21T10:23:34.463Z,3424
2019-01-21T10:24:43.879Z,3508
2019-01-21T10:25:53.558Z,3764
2019-01-21T10:27:03.524Z,4064
2019-01-21T10:28:13.443Z,4184
2019-01-21T10:29:22.863Z,4124
2019-01-21T10:30:32.539Z,4052
2019-01-21T10:31:42.466Z,3944
2019-01-21T10:32:52.138Z,3940
2019-01-21T10:34:02.058Z,3788
2019-01-21T10:35:11.224Z,3780
2019-01-21T10:36:21.149Z,3732
2019-01-21T10:37:30.826Z,3768
2019-01-21T10:38:39.995Z,3296
2019-01-21T10:39:49.914Z,3052
2019-01-21T10:40:59.084Z,2836
2019-01-21T10:42:08.513Z,2708
2019-01-21T10:43:18.739Z,2636
2019-01-21T10:44:28.407Z,2660
2019-01-21T10:45:37.577Z,2732
2019-01-21T10:46:47.002Z,2860
2019-01-21T10:47:56.916Z,3000
2019-01-21T10:49:06.841Z,2952
2019-01-21T10:50:16.510Z,2976
2019-01-21T10:51:26.175Z,2936
2019-01-21T10:52:35.843Z,2988
2019-01-21T10:53:45.514Z,2980
2019-01-21T10:54:55.439Z,2756
2019-01-21T10:56:05.364Z,3052
2019-01-21T10:57:15.287Z,3088
2019-01-21T10:58:24.963Z,3104
2019-01-21T10:59:34.381Z,3132
2019-01-21T11:00:44.054Z,3164
2019-01-21T11:01:53.974Z,3224
2019-01-21T11:03:05.087Z,3300
2019-01-21T11:04:14.758Z,3340
2019-01-21T11:05:23.931Z,3452
2019-01-21T11:06:33.861Z,3564
2019-01-21T11:07:43.790Z,3580
2019-01-21T11:08:53.456Z,3464
2019-01-21T11:10:03.374Z,3384
2019-01-21T11:11:13.301Z,3332
2019-01-21T11:12:23.218Z,3404
2019-01-21T11:13:32.890Z,3540
2019-01-21T11:14:42.327Z,3752
2019-01-21T11:15:51.940Z,3868
2019-01-21T11:17:01.609Z,3808
2019-01-21T11:18:11.275Z,3648
2019-01-21T11:19:24.576Z,3532
2019-01-21T11:20:34.505Z,3420
2019-01-21T11:21:44.181Z,3612
2019-01-21T11:22:53.352Z,3932
2019-01-21T11:24:03.280Z,4408
2019-01-21T11:25:12.701Z,4856
2019-01-21T11:26:22.622Z,5304
2019-01-21T11:27:32.301Z,5520
2019-01-21T11:28:42.508Z,5516
2019-01-21T11:29:52.260Z,5508
2019-01-21T11:31:01.935Z,5440
2019-01-21T11:32:11.617Z,5908
2019-01-21T11:33:21.044Z,6088
2019-01-21T11:34:30.235Z,5964
2019-01-21T11:35:39.896Z,5528
2019-01-21T11:36:49.318Z,4756
2019-01-21T11:37:58.759Z,3940
2019-01-21T11:39:08.430Z,3984
2019-01-21T11:40:18.104Z,3908
2019-01-21T11:41:28.024Z,3392
2019-01-21T11:42:37.443Z,3312
2019-01-21T11:43:47.362Z,3128
2019-01-21T11:44:57.036Z,3020
2019-01-21T11:46:06.960Z,2924
2019-01-21T11:47:16.897Z,3060
2019-01-21T11:48:26.571Z,3000
2019-01-21T11:49:36.494Z,3000
2019-01-21T11:50:46.166Z,3040
2019-01-21T11:51:55.849Z,2960
2019-01-21T11:53:05.524Z,3240
2019-01-21T11:54:14.482Z,3276
2019-01-21T11:55:24.150Z,3300
2019-01-21T11:56:34.074Z,3380
2019-01-21T11:57:43.743Z,3480
2019-01-21T11:58:53.429Z,3608
2019-01-21T12:00:03.109Z,3724
2019-01-21T12:01:12.537Z,3908
2019-01-21T12:02:22.207Z,4164
2019-01-21T12:03:31.883Z,4440
2019-01-21T12:04:41.558Z,4732
2019-01-21T12:05:51.488Z,4924
2019-01-21T12:07:01.168Z,4868
2019-01-21T12:08:10.839Z,4584
2019-01-21T12:09:20.522Z,4236
2019-01-21T12:10:30.444Z,3964
2019-01-21T12:11:40.121Z,3772
2019-01-21T12:12:50.038Z,3724
2019-01-21T12:13:59.470Z,3712
2019-01-21T12:15:08.899Z,3724
2019-01-21T12:16:18.574Z,3772
2019-01-21T12:17:28.252Z,3832
2019-01-21T12:18:37.676Z,3952
2019-01-21T12:19:47.604Z,4196
2019-01-21T12:20:57.021Z,4628
2019-01-21T12:22:06.961Z,5340
2019-01-21T12:23:16.636Z,6396
2019-01-21T12:24:26.559Z,7248
2019-01-21T12:25:36.244Z,7864
2019-01-21T12:26:45.917Z,8264
2019-01-21T12:27:55.336Z,8428
2019-01-21T12:29:04.763Z,8612
2019-01-21T12:30:14.683Z,8580
2019-01-21T12:31:24.612Z,8196
2019-01-21T12:32:34.542Z,7732
2019-01-21T12:33:43.959Z,7168
2019-01-21T12:34:53.382Z,6792
2019-01-21T12:36:03.310Z,6928
2019-01-21T12:37:13.236Z,7604
2019-01-21T12:38:22.938Z,8336
2019-01-21T12:39:32.356Z,8868
2019-01-21T12:40:41.776Z,9152
2019-01-21T12:41:51.199Z,8708
2019-01-21T12:43:00.627Z,8308
2019-01-21T12:44:10.566Z,8320
2019-01-21T12:45:20.545Z,8216
2019-01-21T12:46:30.463Z,8304
2019-01-21T12:47:40.131Z,8320
2019-01-21T12:48:49.799Z,8904
2019-01-21T12:49:59.481Z,9032
2019-01-21T12:51:09.158Z,9204
2019-01-21T12:52:18.836Z,9156
2019-01-21T12:53:28.523Z,9168
2019-01-21T12:54:38.204Z,9268
2019-01-21T12:55:47.882Z,9636
2019-01-21T12:56:57.871Z,10456
2019-01-21T12:58:07.590Z,11348
2019-01-21T12:59:22.964Z,12224
2019-01-21T13:00:32.891Z,12724
2019-01-21T13:01:42.063Z,12952
2019-01-21T13:02:51.245Z,12832
2019-01-21T13:04:00.670Z,12636
2019-01-21T13:05:10.602Z,12196
2019-01-21T13:06:20.278Z,11408
2019-01-21T13:07:29.960Z,10708
2019-01-21T13:08:39.644Z,9940
2019-01-21T13:09:49.324Z,9176
2019-01-21T13:10:59.338Z,9456
2019-01-21T13:12:08.769Z,11160
2019-01-21T13:13:18.443Z,10148
2019-01-21T13:14:27.864Z,8256
2019-01-21T13:15:37.291Z,6008
2019-01-21T13:16:46.713Z,5372
2019-01-21T13:17:56.135Z,4660
2019-01-21T13:19:05.805Z,3916
2019-01-21T13:20:15.225Z,3396
2019-01-21T13:21:24.897Z,3248
2019-01-21T13:22:34.600Z,3392
2019-01-21T13:23:43.791Z,3356
2019-01-21T13:24:53.447Z,3056
2019-01-21T13:26:02.622Z,2756
2019-01-21T13:27:12.986Z,2376
2019-01-21T13:28:22.915Z,2112
2019-01-21T13:29:32.370Z,1824
2019-01-21T13:30:42.038Z,1628
2019-01-21T13:31:51.723Z,1592
2019-01-21T13:33:01.655Z,1596
2019-01-21T13:34:11.085Z,1612
2019-01-21T13:35:20.755Z,1720
2019-01-21T13:36:30.437Z,1916
2019-01-21T13:37:40.368Z,2132
2019-01-21T13:38:50.044Z,2256
2019-01-21T13:39:59.977Z,2484
2019-01-21T13:41:09.703Z,2956
2019-01-21T13:42:19.384Z,3080
2019-01-21T13:43:28.571Z,3008
2019-01-21T13:44:38.248Z,3216
2019-01-21T13:45:47.420Z,3300
2019-01-21T13:46:57.341Z,3336
2019-01-21T13:48:07.021Z,3176
2019-01-21T13:49:16.697Z,2948
2019-01-21T13:50:26.126Z,2728
2019-01-21T13:51:36.049Z,2596
2019-01-21T13:52:45.720Z,2604
2019-01-21T13:53:55.648Z,2556
2019-01-21T13:55:06.267Z,2532
2019-01-21T13:56:16.284Z,2484
2019-01-21T13:57:25.705Z,2436
2019-01-21T13:58:35.378Z,2516
2019-01-21T13:59:44.805Z,2628
2019-01-21T14:00:54.486Z,2628
2019-01-21T14:02:05.053Z,2548
2019-01-21T14:03:14.726Z,2696
2019-01-21T14:04:23.912Z,2768
2019-01-21T14:05:37.775Z,2636
2019-01-21T14:06:47.448Z,2476
2019-01-21T14:07:57.414Z,2208
2019-01-21T14:09:07.341Z,2056
2019-01-21T14:10:16.770Z,1900
2019-01-21T14:11:26.695Z,1764
2019-01-21T14:12:36.365Z,1680
2019-01-21T14:13:45.546Z,1676
2019-01-21T14:14:55.217Z,1660
2019-01-21T14:16:04.649Z,1624
2019-01-21T14:17:14.565Z,1604
2019-01-21T14:18:23.990Z,1612
2019-01-21T14:19:33.662Z,1628
2019-01-21T14:20:48.259Z,1596
2019-01-21T14:21:57.931Z,1576
2019-01-21T14:23:07.362Z,1592
2019-01-21T14:24:17.037Z,1580
2019-01-21T14:25:26.708Z,1512
2019-01-21T14:26:36.123Z,1440
2019-01-21T14:27:45.802Z,1344
2019-01-21T14:28:55.474Z,1284
2019-01-21T14:30:05.429Z,1184
2019-01-21T14:31:14.851Z,1180
2019-01-21T14:32:24.274Z,1232
2019-01-21T14:33:34.200Z,1276
2019-01-21T14:34:43.632Z,1324
2019-01-21T14:35:53.309Z,1376
2019-01-21T14:37:02.496Z,1396
2019-01-21T14:38:12.168Z,1456
2019-01-21T14:39:22.094Z,1472
2019-01-21T14:40:31.769Z,1460
2019-01-21T14:41:41.448Z,1364
2019-01-21T14:42:51.119Z,1228
2019-01-21T14:44:00.301Z,1088
2019-01-21T14:45:10.238Z,1124
2019-01-21T14:46:19.907Z,1140
2019-01-21T14:47:29.702Z,1164
2019-01-21T14:48:39.484Z,1148
2019-01-21T14:49:48.967Z,1128
2019-01-21T14:50:58.645Z,1064
2019-01-21T14:52:08.609Z,1016
2019-01-21T14:53:18.322Z,980
2019-01-21T14:54:28.067Z,988
2019-01-21T14:55:37.830Z,952
2019-01-21T14:56:47.585Z,884
2019-01-21T14:57:57.615Z,804
2019-01-21T14:59:06.985Z,720
2019-01-21T15:00:17.045Z,636
2019-01-21T15:01:26.874Z,552
2019-01-21T15:02:36.881Z,496
2019-01-21T15:03:46.485Z,472
2019-01-21T15:04:56.557Z,452
2019-01-21T15:06:06.309Z,472
2019-01-21T15:07:16.342Z,520
2019-01-21T15:08:26.178Z,540
2019-01-21T15:09:35.491Z,540
2019-01-21T15:10:45.556Z,524
2019-01-21T15:11:55.368Z,492
2019-01-21T15:13:05.343Z,444
2019-01-21T15:14:15.272Z,376
2019-01-21T15:15:25.370Z,352
2019-01-21T15:16:34.888Z,368
2019-01-21T15:17:44.909Z,340
2019-01-21T15:18:55.022Z,292
2019-01-21T15:20:04.584Z,268
2019-01-21T15:21:14.392Z,276
2019-01-21T15:22:23.893Z,268
2019-01-21T15:23:33.797Z,240
2019-01-21T15:24:43.422Z,228
2019-01-21T15:25:53.204Z,228
2019-01-21T15:27:02.913Z,208
2019-01-21T15:28:13.134Z,176
2019-01-21T15:29:23.316Z,156
2019-01-21T15:30:33.271Z,152
2019-01-21T15:31:43.442Z,144
2019-01-21T15:32:53.680Z,120
2019-01-21T15:34:03.949Z,108
2019-01-21T15:35:13.825Z,116
2019-01-21T15:36:28.381Z,128
2019-01-21T15:37:38.505Z,120
2019-01-21T15:38:47.686Z,92
2019-01-21T15:39:57.579Z,76
2019-01-21T15:41:07.796Z,76
2019-01-21T15:42:18.017Z,68
2019-01-21T15:43:27.904Z,64
2019-01-21T15:44:37.960Z,60
2019-01-21T15:45:54.244Z,56
2019-01-21T15:47:04.432Z,48
2019-01-21T15:48:13.854Z,44
2019-01-21T15:49:23.531Z,48
2019-01-21T15:50:32.958Z,48
2019-01-21T15:51:42.875Z,40
2019-01-21T15:52:52.567Z,32
2019-01-21T15:54:02.489Z,36
2019-01-21T15:55:12.174Z,28
2019-01-21T15:56:22.449Z,24
2019-01-21T15:57:32.118Z,24
2019-01-21T15:58:41.791Z,20
2019-01-21T15:59:51.210Z,20
2019-01-21T16:01:00.881Z,16
2019-01-21T16:02:10.557Z,12
2019-01-21T16:03:20.481Z,16
2019-01-21T16:04:30.410Z,12
2019-01-21T16:05:40.331Z,12
2019-01-21T16:06:50.255Z,8
2019-01-21T16:08:00.316Z,8
2019-01-21T16:09:09.989Z,8
2019-01-21T16:10:19.418Z,8
2019-01-21T16:11:29.090Z,8
2019-01-21T16:12:38.510Z,4
2019-01-21T16:13:47.685Z,4
2019-01-21T16:14:57.602Z,4
2019-01-21T16:16:07.025Z,4
2019-01-21T16:17:16.696Z,4